Time;durP1;ratioP1;P1;durP2;ratioP2;P2;SDS_P1;SDS_P2;PMS_P1;PMS_P2;Temp;Humidity;BMP_temperature;BMP_pressure;BME280_temperature;BME280_humidity;BME280_pressure;Samples;Min_cycle;Max_cycle;Signal;HPM_P1;HPM_P2
2021/12/21 00:01:31;;;;;;;13.60;6.13;;;;;;;-1.60;86.34;96406.00;4993147;28;20046;-46
2021/12/21 00:03:59;;;;;;;10.25;5.70;;;;;;;-1.63;86.16;96400.38;4983310;28;20046;-47
2021/12/21 00:06:26;;;;;;;12.48;5.80;;;;;;;-1.61;86.33;96403.59;4980552;28;20058;-46
2021/12/21 00:08:53;;;;;;;12.30;6.53;;;;;;;-1.89;88.41;96400.78;4988738;28;20050;-46
2021/12/21 00:11:20;;;;;;;10.65;5.60;;;;;;;-1.55;86.56;96398.13;4991155;28;20134;-49
2021/12/21 00:16:40;;;;;;;12.45;5.50;;;;;;;-1.79;86.68;96396.69;4988912;28;20043;-45
2021/12/21 00:21:38;;;;;;;12.70;6.25;;;;;;;-1.55;86.43;96398.13;4993588;28;20035;-45
2021/12/21 00:24:20;;;;;;;11.57;5.43;;;;;;;-1.65;86.42;96396.13;4997624;28;20050;-48
2021/12/21 00:26:47;;;;;;;11.80;6.40;;;;;;;-1.71;86.16;96388.34;4983299;28;20122;-45
2021/12/21 00:29:14;;;;;;;13.13;5.75;;;;;;;-1.78;86.35;96400.97;4989882;28;20066;-46
2021/12/21 00:31:40;;;;;;;15.05;5.63;;;;;;;-1.79;86.86;96396.69;4990911;28;20519;-49
2021/12/21 00:34:08;;;;;;;12.93;5.88;;;;;;;-1.65;86.15;96398.78;4986969;28;20046;-47
2021/12/21 00:36:37;;;;;;;12.48;5.00;;;;;;;-1.58;86.02;96393.31;4988196;28;20058;-48
2021/12/21 00:39:11;;;;;;;8.63;4.82;;;;;;;-1.68;85.82;96388.66;4986088;28;20137;-46
2021/12/21 00:41:38;;;;;;;10.48;4.93;;;;;;;-1.77;86.15;96387.44;4994301;28;20038;-48
2021/12/21 00:44:05;;;;;;;13.98;5.20;;;;;;;-1.77;86.56;96384.81;4990006;28;20503;-46
2021/12/21 00:46:32;;;;;;;8.65;4.80;;;;;;;-1.66;86.22;96386.56;4985509;28;20047;-48
2021/12/21 00:49:12;;;;;;;17.25;7.60;;;;;;;-1.71;86.25;96380.38;4985011;28;20047;-49
2021/12/21 00:51:41;;;;;;;9.93;5.05;;;;;;;-1.83;86.16;96375.16;4988910;28;20141;-48
2021/12/21 00:54:08;;;;;;;10.50;4.90;;;;;;;-1.94;86.65;96373.41;4989890;28;20507;-51
2021/12/21 00:56:35;;;;;;;11.48;4.80;;;;;;;-2.03;87.45;96364.25;4989112;28;20046;-48
2021/12/21 00:59:03;;;;;;;9.57;4.72;;;;;;;-2.25;88.22;96364.16;4991515;28;20396;-47
2021/12/21 01:01:35;;;;;;;11.95;4.70;;;;;;;-2.08;87.78;96351.72;4991045;28;20045;-47
2021/12/21 01:04:07;;;;;;;11.05;4.82;;;;;;;-2.19;88.13;96364.00;4982534;28;20047;-46
2021/12/21 01:06:58;;;;;;;8.45;4.90;;;;;;;-2.34;88.83;96358.44;4988408;28;20049;-50
2021/12/21 01:12:05;;;;;;;9.73;4.47;;;;;;;-2.19;89.18;96356.03;4990754;28;20042;-47
2021/12/21 01:17:18;;;;;;;10.88;4.88;;;;;;;-1.89;87.52;96354.91;4987302;28;20039;-46
2021/12/21 01:19:56;;;;;;;11.38;4.50;;;;;;;-2.38;89.37;96352.00;4992950;28;20500;-47
2021/12/21 01:30:25;;;;;;;7.38;4.70;;;;;;;-1.97;86.79;96340.22;4993248;28;20050;-47
2021/12/21 01:35:42;;;;;;;9.10;4.60;;;;;;;-2.41;88.82;96340.03;4991140;28;20038;-47
2021/12/21 01:40:58;;;;;;;8.77;4.22;;;;;;;-1.71;85.07;96330.78;4991747;28;20057;-46
2021/12/21 01:43:38;;;;;;;9.20;5.28;;;;;;;-1.74;84.74;96330.47;4994915;28;20050;-48
2021/12/21 01:51:37;;;;;;;11.80;5.13;;;;;;;-1.90;86.40;96321.47;4989050;28;20034;-45
2021/12/21 01:54:05;;;;;;;10.93;5.28;;;;;;;-1.87;86.89;96323.66;4989895;28;20424;-45
2021/12/21 01:56:32;;;;;;;10.40;4.65;;;;;;;-1.68;85.12;96317.03;4994145;28;20627;-46
2021/12/21 01:58:59;;;;;;;11.68;4.90;;;;;;;-2.13;87.38;96323.28;4994732;28;20074;-44
2021/12/21 02:01:27;;;;;;;9.07;4.65;;;;;;;-2.42;90.20;96324.41;4993805;28;20510;-46
2021/12/21 02:03:55;;;;;;;12.90;4.75;;;;;;;-1.93;86.06;96314.00;4981854;28;20093;-45
2021/12/21 02:06:25;;;;;;;13.35;5.45;;;;;;;-1.91;85.67;96309.28;4990205;28;20042;-47
2021/12/21 02:08:53;;;;;;;13.48;5.75;;;;;;;-1.81;85.12;96305.97;4991227;28;20420;-45
2021/12/21 02:11:21;;;;;;;8.30;5.25;;;;;;;-1.84;84.86;96301.94;4993252;28;20045;-46
2021/12/21 02:13:49;;;;;;;14.05;5.32;;;;;;;-1.91;85.48;96298.66;4994379;28;20049;-45
2021/12/21 02:16:30;;;;;;;12.15;5.85;;;;;;;-2.18;86.17;96299.34;4985274;28;20046;-46
2021/12/21 02:19:08;;;;;;;11.27;5.88;;;;;;;-2.20;86.58;96288.19;4993259;28;20042;-48
2021/12/21 02:21:43;;;;;;;10.40;5.85;;;;;;;-2.32;87.10;96287.44;4991447;28;20523;-47
2021/12/21 02:24:15;;;;;;;14.85;5.90;;;;;;;-2.48;89.09;96285.59;4991481;28;20043;-45
2021/12/21 02:27:05;;;;;;;11.88;6.57;;;;;;;-2.12;86.46;96287.75;4985852;28;20050;-45
2021/12/21 02:29:35;;;;;;;11.85;6.47;;;;;;;-2.14;86.06;96281.91;4991321;28;20074;-47
2021/12/21 02:32:02;;;;;;;12.73;6.15;;;;;;;-2.07;86.37;96280.94;4991168;28;20129;-48
2021/12/21 02:34:29;;;;;;;11.63;6.40;;;;;;;-2.08;85.91;96281.97;4989444;28;20049;-46
2021/12/21 02:36:57;;;;;;;11.48;5.80;;;;;;;-2.13;86.35;96280.84;4983951;28;20043;-45
2021/12/21 02:39:25;;;;;;;16.48;6.28;;;;;;;-2.08;85.82;96282.78;4991211;28;20125;-48
2021/12/21 02:41:52;;;;;;;12.43;6.15;;;;;;;-2.32;87.10;96284.81;4993122;28;20039;-45
2021/12/21 02:44:20;;;;;;;11.30;6.35;;;;;;;-2.22;86.44;96277.00;4992903;28;20050;-48
2021/12/21 02:46:47;;;;;;;13.90;7.03;;;;;;;-2.18;86.73;96272.84;4992261;28;20392;-44
2021/12/21 02:49:15;;;;;;;13.10;6.57;;;;;;;-2.18;86.67;96277.31;4992691;28;20042;-44
2021/12/21 02:51:45;;;;;;;12.75;6.57;;;;;;;-2.18;86.69;96280.78;4991270;28;20046;-45
2021/12/21 02:54:13;;;;;;;16.50;6.70;;;;;;;-2.27;86.20;96274.28;4991303;28;20065;-47
2021/12/21 02:56:41;;;;;;;11.75;6.47;;;;;;;-2.35;86.48;96283.44;4982239;28;20038;-46
2021/12/21 02:59:09;;;;;;;12.57;6.68;;;;;;;-2.52;87.45;96276.53;4992400;28;20046;-45
2021/12/21 03:01:36;;;;;;;14.93;7.20;;;;;;;-2.46;87.59;96275.59;4993052;28;20461;-46
2021/12/21 03:04:07;;;;;;;12.43;7.57;;;;;;;-2.51;87.74;96276.28;4987381;28;20042;-44
2021/12/21 03:11:57;;;;;;;12.10;6.65;;;;;;;-2.60;88.13;96285.66;4981697;28;20042;-46
2021/12/21 03:14:26;;;;;;;17.40;6.72;;;;;;;-2.68;88.72;96281.56;4991093;28;20042;-49
2021/12/21 03:16:53;;;;;;;15.80;7.32;;;;;;;-2.73;88.69;96267.44;4986467;28;20492;-46
2021/12/21 03:19:26;;;;;;;13.32;7.20;;;;;;;-2.49;88.57;96281.34;4993458;28;20050;-47
2021/12/21 03:21:55;;;;;;;13.48;6.82;;;;;;;-2.47;87.57;96276.59;4985850;28;20038;-46
2021/12/21 03:24:22;;;;;;;12.65;6.63;;;;;;;-2.54;87.61;96279.41;4990134;28;20052;-47
2021/12/21 03:26:50;;;;;;;12.52;7.00;;;;;;;-2.50;87.81;96274.44;4990909;28;20054;-46
2021/12/21 03:29:17;;;;;;;12.40;6.47;;;;;;;-2.78;88.53;96276.13;4991554;28;20101;-46
2021/12/21 03:31:44;;;;;;;14.30;7.07;;;;;;;-2.84;89.18;96277.06;4989773;28;20065;-46
2021/12/21 03:34:11;;;;;;;11.30;6.55;;;;;;;-2.87;89.53;96273.03;4986062;28;20053;-46
2021/12/21 03:36:39;;;;;;;12.43;7.22;;;;;;;-2.99;89.74;96276.78;4991591;28;20042;-47
2021/12/21 03:39:08;;;;;;;12.90;6.80;;;;;;;-2.98;89.52;96273.91;4991143;28;20068;-46
2021/12/21 03:41:44;;;;;;;13.98;6.57;;;;;;;-2.97;89.71;96278.16;4992225;28;20042;-47
2021/12/21 03:44:11;;;;;;;13.15;7.03;;;;;;;-3.11;90.10;96266.28;4990579;28;20038;-46
2021/12/21 03:46:52;;;;;;;13.00;6.60;;;;;;;-2.95;89.81;96270.00;4981036;28;20047;-46
2021/12/21 03:52:14;;;;;;;16.98;6.40;;;;;;;-2.88;89.48;96263.50;4992416;28;20058;-45
2021/12/21 03:54:44;;;;;;;13.10;6.93;;;;;;;-2.78;88.94;96265.53;4989657;28;20050;-44
2021/12/21 03:57:12;;;;;;;12.68;6.13;;;;;;;-2.76;88.85;96260.81;4991443;28;20046;-44
2021/12/21 03:59:41;;;;;;;14.55;6.95;;;;;;;-2.66;88.70;96266.25;4990563;28;20042;-46
2021/12/21 04:02:11;;;;;;;10.15;6.65;;;;;;;-2.67;88.26;96262.00;4992543;28;20046;-48
2021/12/21 04:04:39;;;;;;;12.02;6.97;;;;;;;-3.02;89.34;96264.03;4988926;28;20038;-45
2021/12/21 04:07:06;;;;;;;12.95;6.45;;;;;;;-3.44;91.17;96248.47;4987764;28;20396;-45
2021/12/21 04:09:33;;;;;;;12.88;6.82;;;;;;;-3.12;90.13;96246.94;4990552;28;20484;-45
2021/12/21 04:12:03;;;;;;;12.57;7.28;;;;;;;-2.95;89.97;96259.41;4991289;28;20500;-46
2021/12/21 04:14:32;;;;;;;14.27;7.05;;;;;;;-3.04;89.96;96256.34;4988827;28;20039;-45
2021/12/21 04:16:59;;;;;;;12.45;7.38;;;;;;;-2.94;89.86;96253.88;4988726;28;20053;-48
2021/12/21 04:19:26;;;;;;;14.20;7.25;;;;;;;-2.93;89.35;96247.53;4990707;28;20045;-49
2021/12/21 04:21:53;;;;;;;13.90;6.88;;;;;;;-2.90;89.01;96248.91;4991183;28;20042;-48
2021/12/21 04:24:20;;;;;;;14.98;7.72;;;;;;;-2.84;88.95;96253.22;4978615;28;20039;-47
2021/12/21 04:26:47;;;;;;;15.63;7.20;;;;;;;-2.67;88.65;96254.03;4990086;28;20053;-49
2021/12/21 04:29:14;;;;;;;18.27;7.47;;;;;;;-2.74;88.09;96264.00;4991163;28;20053;-46
2021/12/21 04:31:41;;;;;;;14.77;7.18;;;;;;;-2.75;88.37;96256.31;4973829;28;20046;-47
2021/12/21 04:34:08;;;;;;;16.40;7.68;;;;;;;-3.21;90.31;96266.88;4983404;28;20042;-46
2021/12/21 04:36:35;;;;;;;12.55;7.82;;;;;;;-3.34;91.41;96261.88;4988737;28;20134;-47
2021/12/21 04:39:15;;;;;;;14.00;7.85;;;;;;;-3.07;90.66;96259.47;4987430;28;20101;-45
2021/12/21 04:41:44;;;;;;;12.65;7.75;;;;;;;-3.01;90.01;96253.22;4990211;28;20131;-49
2021/12/21 04:44:28;;;;;;;12.70;7.57;;;;;;;-2.87;89.25;96253.72;4990603;28;20042;-48
2021/12/21 04:46:55;;;;;;;12.90;7.25;;;;;;;-2.77;88.98;96258.38;4985954;28;20082;-47
2021/12/21 04:49:22;;;;;;;18.20;7.65;;;;;;;-2.99;90.29;96261.72;4990976;28;20435;-49
2021/12/21 04:51:49;;;;;;;13.95;7.88;;;;;;;-2.90;89.06;96265.56;4992408;28;20046;-47
2021/12/21 04:54:17;;;;;;;15.65;9.27;;;;;;;-3.01;89.19;96258.50;4986530;28;20113;-48
2021/12/21 04:56:44;;;;;;;15.88;8.15;;;;;;;-3.01;89.53;96261.16;4990914;28;20047;-49
2021/12/21 04:59:11;;;;;;;14.30;8.50;;;;;;;-3.19;89.95;96266.63;4995247;28;20045;-45
2021/12/21 05:01:42;;;;;;;15.20;8.52;;;;;;;-3.30;90.66;96260.38;4991508;28;20078;-46
2021/12/21 05:04:10;;;;;;;12.70;8.18;;;;;;;-3.03;90.48;96254.50;4992519;28;20050;-45
2021/12/21 05:06:37;;;;;;;15.48;8.73;;;;;;;-3.13;90.20;96268.34;4991131;28;20043;-46
2021/12/21 05:09:07;;;;;;;20.38;9.35;;;;;;;-3.13;90.54;96271.78;4992537;28;20436;-46
2021/12/21 05:11:35;;;;;;;17.67;9.38;;;;;;;-3.23;90.83;96266.31;4993183;28;20045;-46
2021/12/21 05:14:06;;;;;;;20.45;9.75;;;;;;;-3.40;91.45;96260.97;5007861;28;20042;-47
2021/12/21 05:16:33;;;;;;;19.55;11.05;;;;;;;-3.38;91.63;96253.63;4991329;28;20535;-47
2021/12/21 05:19:00;;;;;;;20.55;10.38;;;;;;;-3.24;91.12;96262.06;4993699;28;20053;-48
2021/12/21 05:21:28;;;;;;;19.20;9.88;;;;;;;-3.19;90.65;96264.00;4990522;28;20038;-46
2021/12/21 05:23:54;;;;;;;19.27;10.18;;;;;;;-3.12;90.57;96262.00;4987981;28;20070;-49
2021/12/21 05:26:21;;;;;;;17.25;9.45;;;;;;;-3.38;92.67;96266.84;4994343;28;20514;-46
2021/12/21 05:28:49;;;;;;;22.45;10.25;;;;;;;-3.21;90.82;96263.44;4994363;28;20049;-47
2021/12/21 05:31:16;;;;;;;22.63;10.07;;;;;;;-3.15;90.23;96267.75;4987376;28;20047;-46
2021/12/21 05:33:45;;;;;;;17.35;10.48;;;;;;;-3.47;91.72;96254.22;4985747;28;20054;-48
2021/12/21 05:36:11;;;;;;;16.80;10.40;;;;;;;-3.60;93.44;96268.53;4991484;28;20046;-46
2021/12/21 05:38:39;;;;;;;15.27;9.73;;;;;;;-3.13;91.52;96268.34;4986555;28;20042;-45
2021/12/21 05:41:12;;;;;;;17.92;9.73;;;;;;;-3.80;93.81;96272.34;4994204;28;20064;-45
2021/12/21 05:43:39;;;;;;;15.50;9.48;;;;;;;-3.80;94.34;96274.19;4992896;28;20125;-51
2021/12/21 05:46:06;;;;;;;14.40;8.82;;;;;;;-4.07;95.60;96277.31;4987526;28;20480;-44
2021/12/21 05:48:33;;;;;;;20.73;9.65;;;;;;;-3.46;93.52;96285.72;4990738;28;20435;-44
2021/12/21 05:51:00;;;;;;;19.42;9.25;;;;;;;-3.20;90.52;96279.06;4993660;28;20046;-44
2021/12/21 05:53:27;;;;;;;17.35;9.35;;;;;;;-3.07;89.79;96275.34;4987999;28;20039;-44
2021/12/21 05:55:54;;;;;;;20.38;10.48;;;;;;;-3.16;90.82;96277.56;4984150;28;20042;-46
2021/12/21 05:58:20;;;;;;;14.75;9.00;;;;;;;-3.03;89.47;96278.31;4993649;28;20050;-47
2021/12/21 06:00:47;;;;;;;16.85;9.40;;;;;;;-3.18;90.15;96274.34;4988845;28;20093;-47
2021/12/21 06:03:15;;;;;;;14.90;10.00;;;;;;;-3.30;90.86;96274.41;4975156;28;20046;-44
2021/12/21 06:05:43;;;;;;;15.68;9.70;;;;;;;-3.31;90.52;96277.28;4987918;28;20049;-45
2021/12/21 06:08:10;;;;;;;18.95;10.38;;;;;;;-3.42;91.02;96278.13;4985889;28;20045;-49
2021/12/21 06:10:40;;;;;;;17.85;10.30;;;;;;;-3.50;91.39;96286.44;4990806;28;20459;-45
2021/12/21 06:13:28;;;;;;;21.02;10.23;;;;;;;-3.39;90.90;96277.66;4993480;28;20051;-44
2021/12/21 06:26:44;;;;;;;20.13;10.95;;;;;;;-3.72;92.66;96273.81;4993211;28;20051;-47
2021/12/21 06:29:11;;;;;;;16.27;9.52;;;;;;;-3.57;91.52;96290.00;4991969;28;20046;-50
2021/12/21 06:31:41;;;;;;;17.02;10.27;;;;;;;-3.62;91.64;96281.97;4993850;28;20038;-46
2021/12/21 06:34:08;;;;;;;16.70;10.30;;;;;;;-3.45;91.84;96283.88;4991184;28;20046;-46
2021/12/21 06:36:35;;;;;;;15.77;11.05;;;;;;;-3.36;91.01;96298.34;4991573;28;20061;-50
2021/12/21 06:39:05;;;;;;;19.83;10.57;;;;;;;-3.57;91.19;96290.00;4991022;28;20049;-47
2021/12/21 06:41:34;;;;;;;19.88;12.25;;;;;;;-3.61;91.37;96288.06;4992678;28;20152;-46
2021/12/21 06:44:03;;;;;;;16.27;10.50;;;;;;;-3.62;91.41;96289.91;5012797;23;20080;-52
2021/12/21 06:52:13;;;;;;;18.63;9.98;;;;;;;-3.23;89.54;96284.03;4970451;28;20042;-53
2021/12/21 06:54:40;;;;;;;18.92;10.77;;;;;;;-3.24;89.41;96283.25;4961809;28;20505;-54
2021/12/21 06:57:07;;;;;;;21.13;10.93;;;;;;;-3.53;90.41;96282.41;4970026;28;20047;-52
2021/12/21 06:59:34;;;;;;;21.90;11.95;;;;;;;-3.67;91.66;96291.63;4991576;28;20038;-49
2021/12/21 07:02:01;;;;;;;18.45;11.05;;;;;;;-3.47;91.42;96285.97;4985826;28;20165;-50
2021/12/21 07:04:29;;;;;;;18.30;11.40;;;;;;;-3.56;91.95;96302.19;5005554;28;20125;-51
2021/12/21 07:06:57;;;;;;;22.83;11.90;;;;;;;-3.29;91.18;96289.22;4989481;28;20042;-51
2021/12/21 07:09:34;;;;;;;22.20;12.25;;;;;;;-3.56;92.61;96294.25;5001040;28;20092;-53
2021/12/21 07:20:06;;;;;;;19.60;11.65;;;;;;;-3.12;90.80;96277.88;4992207;28;20061;-54
2021/12/21 07:22:33;;;;;;;21.83;12.63;;;;;;;-3.16;91.34;96287.34;4988308;28;20126;-55
2021/12/21 07:25:00;;;;;;;22.90;13.15;;;;;;;-2.92;90.27;96282.75;4991719;28;20492;-51
2021/12/21 07:27:27;;;;;;;21.98;12.68;;;;;;;-3.02;91.22;96290.50;4990620;28;20499;-53
2021/12/21 07:29:54;;;;;;;26.27;12.95;;;;;;;-2.74;89.46;96289.69;4991278;28;20046;-50
2021/12/21 07:32:21;;;;;;;18.73;11.63;;;;;;;-3.17;91.84;96288.38;4986141;28;20639;-51
2021/12/21 07:34:48;;;;;;;21.48;12.88;;;;;;;-2.94;90.19;96292.78;4989731;28;20042;-48
2021/12/21 07:37:15;;;;;;;22.00;12.55;;;;;;;-3.07;90.90;96297.31;4984277;28;20047;-49
2021/12/21 07:39:42;;;;;;;22.95;13.38;;;;;;;-3.09;90.43;96291.47;4988637;28;20130;-50
2021/12/21 07:42:17;;;;;;;22.88;12.38;;;;;;;-3.03;91.19;96294.19;4988272;28;20051;-52
2021/12/21 07:44:44;;;;;;;24.17;12.80;;;;;;;-2.92;90.58;96293.34;4991989;28;20041;-56
2021/12/21 07:47:11;;;;;;;22.20;13.10;;;;;;;-2.88;89.43;96283.88;4989533;28;20058;-53
2021/12/21 07:49:38;;;;;;;20.65;13.00;;;;;;;-2.82;89.76;96289.03;4987955;28;20125;-54
2021/12/21 07:52:07;;;;;;;27.75;13.38;;;;;;;-2.86;89.87;96272.03;4993341;28;20100;-55
2021/12/21 07:54:35;;;;;;;24.40;12.98;;;;;;;-3.10;91.49;96284.56;4988042;28;20052;-54
2021/12/21 07:57:03;;;;;;;23.40;12.98;;;;;;;-2.76;89.29;96275.88;4990227;28;20046;-55
2021/12/21 07:59:31;;;;;;;24.63;12.52;;;;;;;-2.59;89.04;96285.44;4970988;28;20047;-48
2021/12/21 08:01:58;;;;;;;19.42;11.73;;;;;;;-2.56;89.40;96278.06;4995221;28;20042;-48
2021/12/21 08:04:28;;;;;;;24.90;12.70;;;;;;;-2.58;88.25;96287.03;4972980;28;20769;-51
2021/12/21 08:06:59;;;;;;;21.73;12.35;;;;;;;-3.15;92.66;96286.28;4973882;28;20066;-51
2021/12/21 08:09:32;;;;;;;23.13;12.10;;;;;;;-2.78;89.95;96276.13;4980006;28;20058;-54
2021/12/21 08:14:39;;;;;;;22.00;13.65;;;;;;;-2.92;90.25;96270.31;4987364;28;20042;-53
2021/12/21 08:17:06;;;;;;;22.23;12.43;;;;;;;-3.26;92.07;96287.16;4985985;28;20058;-52
2021/12/21 08:19:33;;;;;;;23.45;12.80;;;;;;;-3.25;92.46;96280.81;4995636;28;20125;-54
2021/12/21 08:22:00;;;;;;;25.70;12.95;;;;;;;-3.16;92.43;96279.41;5000798;28;20042;-54
2021/12/21 08:24:29;;;;;;;20.50;13.15;;;;;;;-2.88;91.15;96274.09;4987311;28;20046;-52
2021/12/21 08:27:03;;;;;;;29.63;14.27;;;;;;;-2.82;90.78;96282.94;4992659;28;20049;-51
2021/12/21 08:29:30;;;;;;;27.38;13.73;;;;;;;-3.24;92.20;96283.25;4996562;28;20046;-47
2021/12/21 08:31:58;;;;;;;26.65;14.45;;;;;;;-3.26;92.94;96280.00;5002389;28;20057;-54
2021/12/21 08:34:25;;;;;;;23.65;13.02;;;;;;;-3.20;92.11;96287.00;5002568;28;20042;-49
2021/12/21 08:36:52;;;;;;;26.23;13.77;;;;;;;-3.04;91.80;96287.31;4970312;28;20134;-48
2021/12/21 08:39:23;;;;;;;24.15;13.77;;;;;;;-2.97;91.23;96286.09;4990136;28;20046;-49
2021/12/21 08:41:56;;;;;;;23.63;13.20;;;;;;;-2.85;91.47;96294.00;4993489;28;20057;-53
2021/12/21 08:44:26;;;;;;;25.23;13.07;;;;;;;-2.58;89.92;96300.28;4998478;28;20045;-51
2021/12/21 08:46:57;;;;;;;28.63;14.27;;;;;;;-2.64;89.66;96298.59;4999325;28;20048;-47
2021/12/21 08:49:25;;;;;;;26.63;13.75;;;;;;;-2.74;90.17;96295.78;4993128;28;20108;-51
2021/12/21 08:51:55;;;;;;;25.70;13.80;;;;;;;-3.13;93.15;96308.03;5004197;28;20069;-49
2021/12/21 08:54:21;;;;;;;25.15;14.00;;;;;;;-2.85;91.20;96302.75;4998757;28;20332;-47
2021/12/21 08:56:49;;;;;;;25.20;13.75;;;;;;;-2.61;90.15;96300.75;4993430;28;20038;-51
2021/12/21 08:59:17;;;;;;;28.20;14.23;;;;;;;-2.67;90.06;96293.78;4992971;28;20085;-49
2021/12/21 09:04:46;;;;;;;32.47;13.77;;;;;;;-2.30;88.79;96293.31;4866394;27;20413;-46
2021/12/21 09:07:13;;;;;;;26.77;14.25;;;;;;;-2.68;90.22;96294.81;4903150;29;20104;-42
2021/12/21 09:09:40;;;;;;;30.20;14.85;;;;;;;-2.79;91.16;96287.75;4896803;29;20068;-47
2021/12/21 09:12:08;;;;;;;29.15;15.10;;;;;;;-2.65;91.14;96294.34;4898634;29;20071;-44
2021/12/21 09:14:35;;;;;;;29.30;15.38;;;;;;;-2.65;91.12;96294.34;4879671;29;20066;-44
2021/12/21 09:17:02;;;;;;;30.95;15.85;;;;;;;-2.75;91.50;96288.88;4878548;29;21556;-46
2021/12/21 09:19:29;;;;;;;26.38;15.13;;;;;;;-2.52;90.86;96298.53;4876089;29;20041;-45
2021/12/21 09:21:59;;;;;;;26.10;14.07;;;;;;;-2.54;90.04;96291.88;4868264;29;20067;-43
2021/12/21 09:24:28;;;;;;;28.98;14.48;;;;;;;-2.45;89.95;96290.44;4877938;29;20105;-46
2021/12/21 09:26:55;;;;;;;27.48;14.20;;;;;;;-2.78;91.09;96288.56;4875867;29;20159;-42
2021/12/21 09:29:22;;;;;;;24.67;14.25;;;;;;;-2.45;90.96;96293.06;4882633;29;20060;-41
2021/12/21 09:31:48;;;;;;;21.17;13.45;;;;;;;-2.59;90.75;96288.09;4878988;29;20045;-41
2021/12/21 09:34:15;;;;;;;26.02;13.57;;;;;;;-2.55;91.03;96290.25;4888563;29;20041;-43
2021/12/21 09:36:42;;;;;;;24.92;14.05;;;;;;;-2.62;91.83;96304.47;4885702;29;20049;-42
2021/12/21 09:39:09;;;;;;;22.50;12.60;;;;;;;-2.64;91.93;96290.66;4890542;29;20063;-41
2021/12/21 09:41:36;;;;;;;22.17;13.25;;;;;;;-2.75;92.43;96288.88;4881065;29;20045;-41
2021/12/21 09:44:04;;;;;;;27.27;13.32;;;;;;;-2.47;91.77;96280.09;4868604;29;20045;-41
2021/12/21 09:46:32;;;;;;;23.95;13.10;;;;;;;-2.53;91.30;96277.59;4880597;29;20128;-43
2021/12/21 09:48:59;;;;;;;21.65;12.82;;;;;;;-2.54;91.59;96283.91;4868823;29;20068;-45
2021/12/21 09:51:26;;;;;;;24.77;12.45;;;;;;;-2.49;91.18;96278.72;4874857;29;20052;-47
2021/12/21 09:53:56;;;;;;;25.75;12.57;;;;;;;-2.58;91.20;96284.41;4871146;29;20132;-46
2021/12/21 09:56:23;;;;;;;23.00;12.25;;;;;;;-2.54;91.17;96278.63;4881834;29;20511;-44
2021/12/21 09:58:50;;;;;;;19.75;11.68;;;;;;;-2.32;90.36;96276.84;4883784;29;20381;-43
2021/12/21 10:01:20;;;;;;;21.42;13.10;;;;;;;-2.40;90.87;96283.38;4883984;29;20049;-43
2021/12/21 10:03:48;;;;;;;22.27;12.30;;;;;;;-2.32;90.13;96278.69;4879082;29;20049;-43
2021/12/21 10:06:15;;;;;;;21.48;12.45;;;;;;;-2.24;89.58;96275.63;4894361;29;20053;-45
2021/12/21 10:08:43;;;;;;;25.90;15.15;;;;;;;-2.50;91.25;96277.09;4893790;29;20527;-47
2021/12/21 10:11:21;;;;;;;20.83;12.70;;;;;;;-2.22;90.29;96281.50;4876967;29;20052;-41
2021/12/21 10:13:49;;;;;;;23.20;13.15;;;;;;;-2.17;90.30;96279.75;4875746;29;20533;-41
2021/12/21 10:16:21;;;;;;;22.98;13.68;;;;;;;-2.35;89.01;96277.34;4878994;29;20056;-40
2021/12/21 10:18:49;;;;;;;22.95;12.55;;;;;;;-2.19;89.40;96271.22;4885805;29;20052;-40
2021/12/21 10:21:16;;;;;;;22.65;13.02;;;;;;;-2.18;89.22;96269.38;4885590;29;20125;-39
2021/12/21 10:23:48;;;;;;;25.80;13.98;;;;;;;-1.86;87.55;96269.56;4891114;29;20071;-43
2021/12/21 10:26:24;;;;;;;21.85;12.98;;;;;;;-1.46;86.74;96263.97;4886569;29;20066;-47
2021/12/21 10:29:00;;;;;;;23.55;12.93;;;;;;;-1.82;87.38;96267.22;4873343;29;20057;-41
2021/12/21 10:31:30;;;;;;;23.90;13.15;;;;;;;-1.54;86.39;96267.03;4881931;29;20064;-41
2021/12/21 10:33:58;;;;;;;21.90;12.32;;;;;;;-2.01;88.10;96272.81;4877967;29;20489;-40
2021/12/21 10:36:27;;;;;;;21.33;12.38;;;;;;;-2.29;89.01;96265.78;4883398;29;20048;-40
2021/12/21 10:39:00;;;;;;;27.08;14.10;;;;;;;-2.47;90.23;96253.59;4889002;29;20072;-44
2021/12/21 10:41:41;;;;;;;24.88;13.60;;;;;;;-2.31;90.34;96261.75;4875661;29;20477;-47
2021/12/21 10:44:15;;;;;;;29.25;13.38;;;;;;;-2.17;90.20;96261.19;4878860;29;20041;-40
2021/12/21 10:46:52;;;;;;;26.33;14.18;;;;;;;-2.17;90.31;96258.53;4882876;29;20143;-42
2021/12/21 10:49:32;;;;;;;22.52;12.50;;;;;;;-2.07;89.97;96254.44;4877306;29;20071;-41
2021/12/21 10:52:04;;;;;;;22.52;11.73;;;;;;;-1.75;88.78;96265.22;4878379;29;20116;-44
2021/12/21 10:54:33;;;;;;;20.08;12.05;;;;;;;-1.34;87.77;96269.13;4906815;29;20387;-44
2021/12/21 10:57:05;;;;;;;20.70;11.27;;;;;;;-1.64;88.20;96266.94;4877379;29;20056;-47
2021/12/21 10:59:35;;;;;;;19.05;11.25;;;;;;;-1.53;87.76;96262.53;4876207;29;20087;-41
2021/12/21 11:02:15;;;;;;;18.45;11.02;;;;;;;-1.78;87.95;96255.88;4873977;29;20046;-43
2021/12/21 11:04:49;;;;;;;23.85;12.25;;;;;;;-1.82;88.49;96260.09;4891137;29;20057;-40
2021/12/21 11:10:00;;;;;;;21.10;11.38;;;;;;;-1.58;87.26;96254.53;4880617;29;20072;-44
2021/12/21 11:12:29;;;;;;;20.35;12.07;;;;;;;-1.46;86.88;96253.34;4876862;29;20049;-44
2021/12/21 11:14:57;;;;;;;25.83;12.43;;;;;;;-1.22;86.85;96259.19;4884493;29;20049;-44
2021/12/21 11:17:24;;;;;;;23.17;11.50;;;;;;;-0.71;84.38;96251.72;4875489;29;20116;-43
2021/12/21 11:19:52;;;;;;;21.27;11.80;;;;;;;-0.88;85.04;96248.38;4876917;29;20056;-42
2021/12/21 11:22:23;;;;;;;22.23;11.15;;;;;;;-1.10;86.03;96247.66;4871091;29;20538;-43
2021/12/21 11:24:52;;;;;;;19.17;11.75;;;;;;;-1.29;86.43;96236.56;4861567;29;20053;-43
2021/12/21 11:27:22;;;;;;;23.80;11.18;;;;;;;-1.43;86.61;96233.47;4872824;29;20486;-43
2021/12/21 11:29:52;;;;;;;22.67;11.35;;;;;;;-0.89;86.09;96236.16;4890287;29;20067;-43
2021/12/21 11:32:20;;;;;;;22.65;12.18;;;;;;;-0.83;86.16;96231.69;4880527;29;20406;-43
2021/12/21 11:37:35;;;;;;;24.35;13.07;;;;;;;-1.39;86.32;96231.94;4885277;29;20052;-45
2021/12/21 11:40:05;;;;;;;23.92;13.27;;;;;;;-0.69;87.68;96224.91;4885326;29;20060;-42
2021/12/21 11:42:53;;;;;;;24.92;11.70;;;;;;;-0.72;85.18;96218.22;4881358;29;20053;-42
2021/12/21 11:45:27;;;;;;;26.95;12.55;;;;;;;-0.97;86.19;96221.47;4877814;29;20045;-48
2021/12/21 11:48:20;;;;;;;23.25;12.02;;;;;;;-0.95;86.01;96216.69;4886928;29;20051;-44
2021/12/21 11:50:49;;;;;;;23.25;12.50;;;;;;;-1.12;86.45;96220.53;4874069;29;20140;-40
2021/12/21 11:53:19;;;;;;;25.60;12.60;;;;;;;-1.18;87.15;96214.34;4877114;29;20049;-45
2021/12/21 11:55:49;;;;;;;22.88;12.30;;;;;;;-1.21;87.31;96212.19;4882896;29;20052;-43
2021/12/21 11:58:25;;;;;;;26.83;12.18;;;;;;;-1.08;87.13;96209.16;4876391;29;20053;-42
2021/12/21 12:01:05;;;;;;;22.88;12.40;;;;;;;-0.73;85.04;96213.97;4871205;29;20056;-41
2021/12/21 12:03:35;;;;;;;22.10;12.27;;;;;;;-0.71;85.41;96208.44;4870125;29;20131;-42
2021/12/21 12:06:05;;;;;;;24.35;12.02;;;;;;;-0.88;86.55;96211.19;4873148;29;20460;-44
2021/12/21 12:08:49;;;;;;;21.80;12.02;;;;;;;-0.87;85.70;96217.31;4877146;29;20049;-42
2021/12/21 12:11:43;;;;;;;23.35;11.95;;;;;;;-0.63;85.26;96207.16;4883323;29;20048;-44
2021/12/21 12:14:18;;;;;;;21.35;11.40;;;;;;;-0.83;85.88;96207.78;4891121;29;20115;-44
2021/12/21 12:16:48;;;;;;;19.02;12.13;;;;;;;-0.62;84.80;96200.78;4875542;29;20067;-46
2021/12/21 12:19:17;;;;;;;25.27;12.38;;;;;;;-0.16;83.66;96203.72;4890462;29;20176;-44
2021/12/21 12:22:03;;;;;;;22.65;11.07;;;;;;;-0.17;83.49;96200.28;4869282;29;20533;-44
2021/12/21 12:24:45;;;;;;;23.35;11.38;;;;;;;-0.27;81.99;96190.38;4872191;29;20049;-46
2021/12/21 12:27:20;;;;;;;20.65;10.93;;;;;;;-0.05;83.50;96190.25;4876742;29;20056;-47
2021/12/21 12:29:53;;;;;;;19.65;11.38;;;;;;;-0.22;84.62;96197.59;4877194;29;20151;-47
2021/12/21 12:32:35;;;;;;;20.58;11.10;;;;;;;-0.39;84.41;96207.56;4877809;29;20056;-46
2021/12/21 12:35:32;;;;;;;22.77;11.93;;;;;;;-0.66;85.03;96197.81;4876855;29;20129;-48
2021/12/21 12:38:05;;;;;;;20.88;12.13;;;;;;;-0.43;84.66;96196.66;4886614;29;20057;-47
2021/12/21 12:40:43;;;;;;;21.83;12.82;;;;;;;-0.55;85.00;96198.72;4880710;29;20061;-44
2021/12/21 12:43:14;;;;;;;21.45;12.38;;;;;;;-0.07;84.21;96188.91;4874462;29;20044;-44
2021/12/21 12:45:50;;;;;;;19.75;11.65;;;;;;;-0.30;81.31;96192.75;4885632;29;20266;-45
2021/12/21 12:48:29;;;;;;;21.10;11.63;;;;;;;0.43;81.80;96185.66;4905304;29;20051;-45